createdAt,value
2023-03-15T00:00:15.905Z,2.12
2023-03-15T00:03:10.123Z,2.26
2023-03-15T00:06:08.724Z,2.26
2023-03-15T00:08:53.534Z,2.33
2023-03-15T00:11:46.696Z,2.24
2023-03-15T00:14:33.938Z,2.30
2023-03-15T00:17:25.708Z,2.37
2023-03-15T00:20:12.207Z,2.42
2023-03-15T00:23:03.701Z,2.39
2023-03-15T00:25:50.559Z,2.50
2023-03-15T00:28:42.740Z,2.50
2023-03-15T00:31:30.690Z,2.46
2023-03-15T00:34:21.705Z,2.47
2023-03-15T00:37:15.792Z,2.49
2023-03-15T00:40:00.692Z,2.50
2023-03-15T00:42:56.705Z,2.43
2023-03-15T00:45:41.654Z,2.49
2023-03-15T00:48:33.729Z,2.52
2023-03-15T00:51:22.812Z,2.55
2023-03-15T00:54:19.689Z,2.56
2023-03-15T00:57:07.799Z,2.56
2023-03-15T01:00:01.693Z,2.59
2023-03-15T01:02:54.965Z,2.61
2023-03-15T01:05:46.778Z,2.66
2023-03-15T01:08:37.718Z,2.69
2023-03-15T01:11:35.043Z,2.72
2023-03-15T01:14:20.229Z,2.64
2023-03-15T01:17:13.701Z,2.66
2023-03-15T01:20:00.707Z,2.61
2023-03-15T01:22:52.711Z,2.67
2023-03-15T01:25:40.368Z,2.77
2023-03-15T01:28:34.710Z,2.81
2023-03-15T01:31:21.810Z,2.95
2023-03-15T01:34:15.730Z,2.69
2023-03-15T01:37:02.677Z,2.79
2023-03-15T01:39:55.703Z,2.81
2023-03-15T01:43:11.500Z,2.64
2023-03-15T01:46:05.727Z,2.73
2023-03-15T01:49:06.708Z,2.55
2023-03-15T01:51:59.958Z,2.65
2023-03-15T01:54:57.719Z,2.65
2023-03-15T01:57:52.364Z,2.42
2023-03-15T02:00:47.747Z,2.57
2023-03-15T02:04:02.557Z,2.64
2023-03-15T02:06:55.932Z,2.72
2023-03-15T02:10:00.718Z,2.61
2023-03-15T02:12:51.235Z,2.69
2023-03-15T02:15:44.723Z,2.58
2023-03-15T02:18:35.645Z,2.72
2023-03-15T02:21:54.674Z,2.62
2023-03-15T02:25:01.241Z,2.56
2023-03-15T02:27:52.736Z,2.61
2023-03-15T02:30:38.029Z,2.39
2023-03-15T02:33:34.932Z,2.27
2023-03-15T02:36:29.746Z,1.94
2023-03-15T02:39:16.770Z,1.74
2023-03-15T02:42:12.451Z,1.52
2023-03-15T02:44:58.087Z,1.34
2023-03-15T02:47:53.809Z,1.45
2023-03-15T02:50:39.108Z,1.20
2023-03-15T02:53:35.728Z,1.35
2023-03-15T02:56:21.062Z,1.31
2023-03-15T02:59:14.741Z,1.46
2023-03-15T03:01:59.901Z,1.56
2023-03-15T03:04:51.751Z,1.60
2023-03-15T03:07:45.063Z,1.49
2023-03-15T03:10:36.734Z,1.48
2023-03-15T03:13:28.728Z,1.60
2023-03-15T03:16:19.838Z,1.66
2023-03-15T03:19:10.733Z,1.68
2023-03-15T03:22:00.141Z,1.55
2023-03-15T03:24:54.774Z,1.53
2023-03-15T03:27:40.778Z,1.46
2023-03-15T03:30:31.760Z,1.52
2023-03-15T03:33:16.702Z,1.46
2023-03-15T03:36:10.780Z,1.59
2023-03-15T03:39:03.732Z,1.61
2023-03-15T03:41:52.077Z,1.69
2023-03-15T03:44:43.731Z,1.75
2023-03-15T03:47:35.730Z,1.85
2023-03-15T03:50:27.749Z,1.86
2023-03-15T03:53:18.738Z,1.79
2023-03-15T03:56:15.007Z,1.86
2023-03-15T03:59:06.736Z,1.94
2023-03-15T04:01:51.719Z,2.01
2023-03-15T04:04:44.619Z,2.06
2023-03-15T04:07:38.021Z,2.10
2023-03-15T04:10:32.734Z,2.08
2023-03-15T04:13:17.940Z,1.97
2023-03-15T04:16:15.544Z,1.88
2023-03-15T04:19:00.801Z,1.91
2023-03-15T04:21:55.718Z,1.92
2023-03-15T04:24:42.845Z,2.22
2023-03-15T04:27:36.732Z,2.08
2023-03-15T04:30:26.926Z,2.09
2023-03-15T04:33:18.760Z,2.15
2023-03-15T04:36:09.769Z,2.22
2023-03-15T04:39:11.749Z,2.20
2023-03-15T04:42:03.721Z,2.22
2023-03-15T04:44:48.528Z,2.19
2023-03-15T04:47:39.733Z,2.16
2023-03-15T04:50:31.793Z,1.94
2023-03-15T04:53:22.745Z,1.80
2023-03-15T04:56:14.757Z,1.68
2023-03-15T04:59:02.562Z,1.66
2023-03-15T05:01:53.799Z,1.63
2023-03-15T05:04:59.757Z,1.62
2023-03-15T05:07:51.754Z,1.57
2023-03-15T05:10:36.973Z,1.63
2023-03-15T05:13:33.743Z,1.59
2023-03-15T05:16:18.824Z,1.57
2023-03-15T05:19:12.951Z,1.65
2023-03-15T05:21:57.957Z,1.60
2023-03-15T05:24:50.978Z,1.72
2023-03-15T05:27:36.981Z,1.67
2023-03-15T05:30:28.753Z,1.71
2023-03-15T05:33:23.970Z,1.54
2023-03-15T05:36:21.772Z,1.69
2023-03-15T05:39:15.745Z,1.68
2023-03-15T05:42:08.780Z,1.60
2023-03-15T05:44:54.053Z,1.70
2023-03-15T05:47:45.764Z,1.68
2023-03-15T05:50:36.033Z,1.63
2023-03-15T05:53:27.735Z,1.64
2023-03-15T05:56:12.812Z,1.65
2023-03-15T05:59:05.967Z,1.72
2023-03-15T06:01:57.750Z,1.63
2023-03-15T06:05:02.740Z,1.57
2023-03-15T06:07:53.775Z,1.76
2023-03-15T06:10:44.329Z,1.75
2023-03-15T06:13:35.751Z,1.80
2023-03-15T06:16:20.572Z,1.73
2023-03-15T06:19:12.720Z,1.73
2023-03-15T06:21:57.919Z,1.80
2023-03-15T06:24:48.763Z,1.86
2023-03-15T06:27:33.769Z,1.97
2023-03-15T06:30:26.757Z,1.95
2023-03-15T06:33:14.557Z,2.16
2023-03-15T06:36:07.102Z,2.10
2023-03-15T06:39:00.735Z,2.14
2023-03-15T06:41:45.769Z,2.02
2023-03-15T06:44:41.227Z,2.18
2023-03-15T06:47:29.452Z,2.30
2023-03-15T06:50:20.745Z,2.47
2023-03-15T06:53:12.761Z,2.36
2023-03-15T06:56:07.052Z,2.43
2023-03-15T06:58:55.773Z,2.69
2023-03-15T07:01:49.795Z,2.37
2023-03-15T07:04:40.741Z,2.54
2023-03-15T07:07:32.969Z,2.54
2023-03-15T07:10:18.088Z,2.42
2023-03-15T07:13:13.765Z,2.40
2023-03-15T07:15:58.737Z,2.46
2023-03-15T07:18:49.794Z,2.56
2023-03-15T07:21:41.765Z,2.59
2023-03-15T07:24:29.410Z,2.57
2023-03-15T07:27:21.758Z,2.52
2023-03-15T07:30:09.786Z,2.67
2023-03-15T07:33:00.884Z,2.52
2023-03-15T07:35:46.143Z,2.67
2023-03-15T07:38:43.032Z,2.75
2023-03-15T07:41:34.764Z,2.54
2023-03-15T07:44:25.777Z,2.83
2023-03-15T07:47:10.809Z,2.95
2023-03-15T07:50:04.768Z,2.90
2023-03-15T07:52:55.763Z,2.87
2023-03-15T07:55:40.661Z,3.07
2023-03-15T07:58:32.761Z,2.91
2023-03-15T08:01:20.048Z,2.96
2023-03-15T08:04:11.798Z,3.43
2023-03-15T08:07:02.963Z,3.37
2023-03-15T08:09:54.761Z,3.41
2023-03-15T08:12:48.764Z,3.52
2023-03-15T08:15:42.763Z,3.31
2023-03-15T08:18:35.783Z,3.42
2023-03-15T08:21:30.756Z,3.06
2023-03-15T08:24:15.597Z,3.36
2023-03-15T08:27:09.773Z,3.39
2023-03-15T08:29:57.023Z,3.08
2023-03-15T08:32:51.792Z,3.25
2023-03-15T08:35:36.647Z,3.12
2023-03-15T08:38:27.782Z,3.12
2023-03-15T08:41:19.771Z,3.23
2023-03-15T08:44:04.556Z,3.26
2023-03-15T08:46:56.826Z,3.41
2023-03-15T08:49:41.597Z,3.46
2023-03-15T08:52:38.786Z,3.30
2023-03-15T08:55:25.894Z,3.07
2023-03-15T08:58:19.766Z,3.00
2023-03-15T09:01:07.353Z,2.76
2023-03-15T09:03:58.808Z,2.89
2023-03-15T09:06:49.863Z,3.34
2023-03-15T09:09:42.023Z,3.65
2023-03-15T09:12:28.201Z,3.62
2023-03-15T09:15:23.775Z,3.51
2023-03-15T09:18:08.555Z,3.57
2023-03-15T09:20:59.769Z,3.31
2023-03-15T09:23:44.591Z,3.41
2023-03-15T09:26:38.773Z,3.48
2023-03-15T09:29:29.780Z,3.26
2023-03-15T09:32:23.857Z,3.74
2023-03-15T09:35:12.777Z,3.29
2023-03-15T09:38:07.786Z,3.73
2023-03-15T09:40:58.506Z,4.60
2023-03-15T09:44:04.780Z,4.89
2023-03-15T09:47:14.792Z,4.93
2023-03-15T09:50:12.793Z,4.45
2023-03-15T09:53:12.783Z,4.75
2023-03-15T09:56:06.811Z,5.06
2023-03-15T09:59:06.569Z,7.38
2023-03-15T10:01:55.913Z,8.47
2023-03-15T10:04:50.794Z,7.92
2023-03-15T10:07:35.971Z,8.57
2023-03-15T10:10:45.792Z,8.93
2023-03-15T10:14:18.989Z,10.07
2023-03-15T10:17:12.883Z,10.62
2023-03-15T10:20:10.815Z,10.86
2023-03-15T10:23:03.072Z,9.39
2023-03-15T10:25:58.998Z,10.65
2023-03-15T10:28:44.780Z,10.63
2023-03-15T10:31:45.166Z,10.00
2023-03-15T10:34:30.658Z,10.81
2023-03-15T10:37:21.792Z,7.82
2023-03-15T10:40:08.642Z,9.24
2023-03-15T10:43:00.803Z,10.32
2023-03-15T10:46:12.839Z,12.72
2023-03-15T10:49:16.809Z,9.99
2023-03-15T10:52:02.438Z,10.86
2023-03-15T10:54:58.767Z,11.21
2023-03-15T10:58:04.824Z,13.43
2023-03-15T11:01:00.762Z,12.22
2023-03-15T11:04:04.792Z,12.33
2023-03-15T11:06:56.942Z,9.02
2023-03-15T11:10:26.800Z,10.82
2023-03-15T11:13:29.821Z,11.11
2023-03-15T11:16:14.920Z,11.80
2023-03-15T11:19:20.804Z,13.39
2023-03-15T11:22:13.802Z,13.41
2023-03-15T11:24:59.050Z,13.54
2023-03-15T11:27:52.873Z,11.59
2023-03-15T11:30:39.494Z,11.49
2023-03-15T11:34:00.829Z,12.42
2023-03-15T11:37:07.178Z,10.75
2023-03-15T11:40:11.622Z,11.68
2023-03-15T11:43:07.814Z,8.68
2023-03-15T11:45:58.568Z,8.08
2023-03-15T11:48:57.822Z,7.87
2023-03-15T11:51:43.427Z,7.46
2023-03-15T11:54:38.870Z,6.83
2023-03-15T11:57:49.828Z,6.60
2023-03-15T12:00:34.571Z,6.70
2023-03-15T12:03:40.886Z,6.51
2023-03-15T12:06:44.886Z,7.04
2023-03-15T12:09:42.813Z,7.06
2023-03-15T12:12:27.941Z,7.25
2023-03-15T12:15:24.964Z,7.04
2023-03-15T12:18:22.838Z,6.46
2023-03-15T12:21:18.836Z,6.32
2023-03-15T12:24:14.153Z,6.46
2023-03-15T12:27:14.843Z,6.09
2023-03-15T12:30:02.121Z,6.98
2023-03-15T12:32:58.846Z,6.70
2023-03-15T12:35:46.009Z,6.73
2023-03-15T12:38:49.847Z,6.43
2023-03-15T12:41:45.839Z,7.36
2023-03-15T12:44:39.333Z,7.67
2023-03-15T12:47:30.837Z,7.59
2023-03-15T12:50:47.837Z,7.30
2023-03-15T12:53:45.875Z,7.82
2023-03-15T12:56:37.658Z,7.54
2023-03-15T12:59:39.846Z,7.20
2023-03-15T13:02:43.706Z,7.50
2023-03-15T13:05:45.202Z,7.15
2023-03-15T13:09:27.831Z,7.40
2023-03-15T13:12:51.610Z,6.90
2023-03-15T13:15:50.825Z,7.64
2023-03-15T13:18:58.842Z,7.60
2023-03-15T13:22:14.715Z,7.63
2023-03-15T13:25:23.852Z,7.36
2023-03-15T13:28:24.367Z,7.41
2023-03-15T13:31:33.882Z,8.00
2023-03-15T13:34:31.839Z,7.97
2023-03-15T13:37:30.897Z,7.65
2023-03-15T13:40:24.970Z,7.49
2023-03-15T13:43:17.857Z,7.95
2023-03-15T13:46:03.965Z,8.28
2023-03-15T13:48:58.830Z,8.33
2023-03-15T13:51:51.849Z,8.38
2023-03-15T13:54:44.046Z,8.31
2023-03-15T13:57:29.310Z,8.11
2023-03-15T14:00:23.853Z,8.04
2023-03-15T14:03:16.653Z,8.48
2023-03-15T14:06:14.879Z,8.33
2023-03-15T14:09:11.523Z,8.40
2023-03-15T14:12:11.869Z,8.33
2023-03-15T14:14:59.219Z,8.78
2023-03-15T14:18:06.878Z,9.01
2023-03-15T14:21:24.856Z,8.94
2023-03-15T14:24:40.859Z,8.41
2023-03-15T14:27:30.603Z,8.68
2023-03-15T14:30:33.874Z,8.55
2023-03-15T14:33:48.617Z,8.53
2023-03-15T14:36:41.752Z,8.64
2023-03-15T14:39:48.865Z,8.57
2023-03-15T14:42:33.918Z,7.98
2023-03-15T14:45:28.862Z,8.32
2023-03-15T14:48:23.223Z,8.47
2023-03-15T14:51:23.870Z,8.34
2023-03-15T14:54:13.397Z,8.65
2023-03-15T14:57:05.868Z,8.65
2023-03-15T14:59:57.857Z,8.67
2023-03-15T15:02:44.675Z,8.69
2023-03-15T15:05:37.854Z,8.68
2023-03-15T15:08:23.133Z,8.68
2023-03-15T15:11:15.886Z,8.69
2023-03-15T15:14:07.001Z,8.50
2023-03-15T15:16:52.232Z,8.41
2023-03-15T15:19:45.110Z,8.08
2023-03-15T15:22:37.875Z,8.19
2023-03-15T15:25:34.941Z,8.34
2023-03-15T15:28:33.170Z,8.20
2023-03-15T15:31:30.887Z,8.31
2023-03-15T15:34:15.784Z,8.11
2023-03-15T15:37:07.890Z,8.08
2023-03-15T15:39:52.902Z,8.19
2023-03-15T15:42:43.874Z,8.01
2023-03-15T15:45:35.855Z,8.20
2023-03-15T15:48:20.920Z,8.18
2023-03-15T15:51:26.872Z,7.61
2023-03-15T15:54:26.094Z,7.69
2023-03-15T15:57:18.875Z,7.69
2023-03-15T16:00:12.284Z,7.74
2023-03-15T16:03:04.903Z,7.70
2023-03-15T16:06:02.907Z,7.50
2023-03-15T16:08:57.942Z,7.43
2023-03-15T16:11:43.204Z,7.25
2023-03-15T16:14:34.893Z,7.16
2023-03-15T16:17:22.491Z,7.15
2023-03-15T16:20:15.892Z,7.21
2023-03-15T16:23:01.177Z,7.23
2023-03-15T16:25:55.889Z,7.25
2023-03-15T16:28:41.517Z,7.22
2023-03-15T16:34:46.881Z,7.11
2023-03-15T16:37:40.881Z,7.15
2023-03-15T16:40:35.054Z,7.06
2023-03-15T16:43:28.898Z,7.01
2023-03-15T16:46:25.106Z,6.86
2023-03-15T16:49:10.366Z,6.87
2023-03-15T16:52:02.909Z,6.88
2023-03-15T16:54:56.882Z,6.84
2023-03-15T16:57:41.889Z,6.74
2023-03-15T17:00:34.905Z,6.68
2023-03-15T17:04:06.941Z,6.64
2023-03-15T17:07:11.906Z,6.55
2023-03-15T17:09:57.409Z,6.47
2023-03-15T17:12:49.902Z,6.33
2023-03-15T17:15:47.008Z,6.34
2023-03-15T17:18:34.201Z,6.27
2023-03-15T17:21:30.885Z,6.25
2023-03-15T17:24:15.880Z,6.19
2023-03-15T17:27:07.898Z,5.92
2023-03-15T17:29:55.876Z,6.02
2023-03-15T17:32:48.984Z,5.97
2023-03-15T17:35:38.230Z,5.88
2023-03-15T17:38:38.108Z,5.89
2023-03-15T17:41:35.076Z,5.75
2023-03-15T17:44:19.941Z,5.58
2023-03-15T17:47:13.002Z,5.51
2023-03-15T17:49:58.302Z,5.30
2023-03-15T17:52:51.003Z,5.16
2023-03-15T17:55:43.912Z,5.29
2023-03-15T18:01:46.277Z,5.24
2023-03-15T18:04:40.901Z,5.27
2023-03-15T18:07:32.124Z,5.25
2023-03-15T18:10:26.911Z,5.24
2023-03-15T18:13:26.914Z,5.14
2023-03-15T18:16:14.744Z,5.18
2023-03-15T18:19:05.910Z,5.15
2023-03-15T18:21:50.489Z,5.13
2023-03-15T18:24:42.012Z,5.11
2023-03-15T18:27:27.273Z,5.10
2023-03-15T18:30:20.950Z,5.12
2023-03-15T18:33:06.014Z,5.06
2023-03-15T18:36:04.048Z,4.98
2023-03-15T18:38:48.952Z,5.02
2023-03-15T18:41:40.906Z,4.99
2023-03-15T18:44:25.650Z,4.91
2023-03-15T18:47:17.967Z,4.92
2023-03-15T18:50:10.600Z,4.89
2023-03-15T18:53:05.982Z,4.90
2023-03-15T18:55:51.952Z,4.95
2023-03-15T18:58:42.896Z,4.86
2023-03-15T19:01:34.935Z,4.58
2023-03-15T19:04:20.128Z,4.70
2023-03-15T19:07:18.913Z,4.70
2023-03-15T19:10:21.915Z,4.49
2023-03-15T19:13:07.248Z,4.54
2023-03-15T19:15:58.938Z,4.55
2023-03-15T19:18:44.030Z,4.46
2023-03-15T19:21:35.922Z,4.53
2023-03-15T19:27:41.966Z,4.45
2023-03-15T19:30:27.429Z,4.35
2023-03-15T19:36:25.691Z,4.20
2023-03-15T19:39:18.918Z,4.17
2023-03-15T19:42:04.106Z,4.21
2023-03-15T19:48:10.930Z,4.20
2023-03-15T19:51:07.912Z,4.27
2023-03-15T19:57:05.291Z,4.30
2023-03-15T19:59:58.960Z,4.22
2023-03-15T20:02:47.807Z,4.14
2023-03-15T20:09:00.927Z,4.08
2023-03-15T20:15:05.928Z,4.04
2023-03-15T20:18:00.949Z,3.97
2023-03-15T20:20:55.925Z,3.95
2023-03-15T20:23:41.631Z,3.75
2023-03-15T20:29:45.933Z,3.64
2023-03-15T20:32:38.942Z,3.46
2023-03-15T20:35:23.738Z,3.39
2023-03-15T20:38:16.908Z,3.37
2023-03-15T20:41:01.939Z,3.32
2023-03-15T20:43:54.929Z,3.39
2023-03-15T20:46:47.007Z,3.29
2023-03-15T20:49:32.003Z,3.22
2023-03-15T20:52:22.941Z,3.18
2023-03-15T20:55:15.937Z,3.27
2023-03-15T20:58:00.886Z,3.24
2023-03-15T21:00:51.981Z,2.82
2023-03-15T21:03:37.352Z,2.97
2023-03-15T21:06:35.948Z,2.95
2023-03-15T21:09:27.977Z,2.93
2023-03-15T21:12:19.941Z,2.79
2023-03-15T21:15:13.924Z,2.79
2023-03-15T21:18:04.917Z,2.84
2023-03-15T21:20:58.100Z,2.85
2023-03-15T21:23:48.945Z,2.45
2023-03-15T21:26:33.785Z,2.54
2023-03-15T21:29:25.936Z,2.60
2023-03-15T21:32:17.962Z,2.57
2023-03-15T21:35:10.924Z,2.49
2023-03-15T21:38:02.935Z,2.44
2023-03-15T21:40:57.753Z,2.47
2023-03-15T21:43:49.917Z,2.13
2023-03-15T21:46:35.094Z,2.22
2023-03-15T21:49:26.906Z,2.22
2023-03-15T21:52:12.382Z,2.10
2023-03-15T21:55:03.926Z,2.15
2023-03-15T21:57:49.041Z,2.23
2023-03-15T22:00:40.927Z,2.21
2023-03-15T22:03:27.204Z,2.32
2023-03-15T22:06:18.934Z,2.46
2023-03-15T22:09:10.076Z,2.54
2023-03-15T22:12:01.932Z,2.58
2023-03-15T22:14:51.584Z,2.52
2023-03-15T22:17:45.940Z,2.50
2023-03-15T22:20:31.163Z,2.54
2023-03-15T22:23:22.904Z,2.63
2023-03-15T22:26:07.665Z,2.60
2023-03-15T22:28:58.916Z,2.58
2023-03-15T22:31:43.751Z,2.54
2023-03-15T22:34:34.937Z,2.48
2023-03-15T22:37:19.858Z,2.45
2023-03-15T22:40:12.930Z,2.36
2023-03-15T22:42:59.504Z,2.41
2023-03-15T22:45:50.958Z,2.32
2023-03-15T22:48:36.048Z,2.36
2023-03-15T22:51:27.947Z,2.30
2023-03-15T22:54:12.789Z,2.30
2023-03-15T22:57:03.949Z,2.20
2023-03-15T22:59:54.950Z,1.75
2023-03-15T23:02:41.328Z,1.77
2023-03-15T23:05:32.947Z,1.76
2023-03-15T23:08:24.123Z,1.72
2023-03-15T23:11:15.954Z,1.69
2023-03-15T23:14:00.790Z,1.72
2023-03-15T23:16:51.953Z,1.67
2023-03-15T23:19:43.982Z,1.70
2023-03-15T23:22:29.433Z,1.71
2023-03-15T23:25:23.955Z,1.79
2023-03-15T23:28:09.166Z,1.82
2023-03-15T23:31:01.060Z,1.80
2023-03-15T23:33:48.361Z,1.90
2023-03-15T23:36:41.739Z,1.91
2023-03-15T23:39:35.955Z,1.91
2023-03-15T23:42:25.556Z,1.79
2023-03-15T23:45:18.946Z,1.73
2023-03-15T23:48:10.977Z,1.75
2023-03-15T23:51:04.960Z,1.75
2023-03-15T23:53:49.881Z,1.68
2023-03-15T23:56:40.960Z,1.69
2023-03-15T23:59:25.958Z,1.70
